KHY3359 RPUO-RPLC
Flight info
| Callsign | KHY3359 |
|---|---|
| Flight time | N/A |
| Altitude | 16000 |
| Route | MINIO DCT LAO DCT CURIM DCT MALIB MALIB7R |
| Aircraft | B190/M-SDFGRY/S |
Departure
| Time | N/A |
|---|---|
| Airport | Basco Airport (RPUO) |
Arrival
| Time | 2026-04-26 08:55 |
|---|---|
| Airport | Clark International Airport / Clark Air Base (RPLC) |
| Time | Latitude | Longitude | Altitude | Speed | Heading |
|---|---|---|---|---|---|
| 2026-04-26 08:51 | 15.28979 | 120.60424 | 2131 ft | 130 kts | 205° |
| 2026-04-26 08:52 | 15.28121 | 120.60053 | 2065 ft | 136 kts | 204° |
| 2026-04-26 08:52 | 15.27261 | 120.59705 | 2041 ft | 128 kts | 201° |
| 2026-04-26 08:52 | 15.26428 | 120.59391 | 1911 ft | 128 kts | 203° |
| 2026-04-26 08:52 | 15.25573 | 120.59049 | 1775 ft | 134 kts | 203° |
| 2026-04-26 08:53 | 15.24655 | 120.58669 | 1534 ft | 146 kts | 204° |
| 2026-04-26 08:53 | 15.23719 | 120.58284 | 1322 ft | 143 kts | 204° |
| 2026-04-26 08:53 | 15.22784 | 120.57916 | 1093 ft | 147 kts | 202° |
| 2026-04-26 08:53 | 15.21835 | 120.57531 | 894 ft | 148 kts | 202° |
| 2026-04-26 08:54 | 15.20884 | 120.57154 | 669 ft | 147 kts | 201° |
| 2026-04-26 08:54 | 15.19958 | 120.56786 | 512 ft | 137 kts | 201° |
| 2026-04-26 08:54 | 15.19233 | 120.56495 | 487 ft | 80 kts | 200° |
| 2026-04-26 08:54 | 15.18859 | 120.56347 | 486 ft | 50 kts | 199° |
| 2026-04-26 08:55 | 15.18577 | 120.56235 | 486 ft | 33 kts | 201° |
| 2026-04-26 08:55 | 15.18380 | 120.56159 | 486 ft | 33 kts | 201° |
| 2026-04-26 08:55 | 15.18163 | 120.56069 | 486 ft | 20 kts | 217° |
| 2026-04-26 08:55 | 15.18177 | 120.55917 | 486 ft | 18 kts | 289° |
| 2026-04-26 08:56 | 15.18231 | 120.55752 | 486 ft | 24 kts | 303° |
| 2026-04-26 08:56 | 15.18308 | 120.55705 | 486 ft | 11 kts | 12° |
| 2026-04-26 08:56 | 15.18371 | 120.55724 | 486 ft | 9 kts | 9° |
| 2026-04-26 08:56 | 15.18424 | 120.55743 | 486 ft | 6 kts | 28° |
| 2026-04-26 08:57 | 15.18465 | 120.55763 | 486 ft | 13 kts | 22° |
| 2026-04-26 08:57 | 15.18557 | 120.55801 | 486 ft | 15 kts | 21° |
| 2026-04-26 08:57 | 15.18659 | 120.55842 | 486 ft | 16 kts | 20° |
| 2026-04-26 08:57 | 15.18769 | 120.55885 | 486 ft | 17 kts | 22° |
| 2026-04-26 08:58 | 15.18884 | 120.55930 | 486 ft | 18 kts | 24° |
| 2026-04-26 08:58 | 15.18994 | 120.55976 | 486 ft | 16 kts | 24° |
| 2026-04-26 08:58 | 15.19101 | 120.56011 | 486 ft | 14 kts | 356° |
| 2026-04-26 08:58 | 15.19157 | 120.55954 | 486 ft | 9 kts | 354° |
| 2026-04-26 08:59 | 15.19226 | 120.55976 | 486 ft | 11 kts | 21° |
| 2026-04-26 08:59 | 15.19287 | 120.55998 | 486 ft | 3 kts | 351° |
| 2026-04-26 08:59 | 15.19296 | 120.55975 | 486 ft | 4 kts | 288° |
| 2026-04-26 08:59 | 15.19311 | 120.55936 | 486 ft | 5 kts | 290° |
| 2026-04-26 09:00 | 15.19316 | 120.55922 | 486 ft | 0 kts | 291° |
| 2026-04-26 09:00 | 15.19316 | 120.55924 | 486 ft | 0 kts | 290° |